createdAt,value
2019-05-22T00:01:07.352Z,32.13
2019-05-22T00:03:41.497Z,31.63
2019-05-22T00:06:09.505Z,33.70
2019-05-22T00:08:37.643Z,29.50
2019-05-22T00:11:05.730Z,32.73
2019-05-22T00:13:39.062Z,30.27
2019-05-22T00:16:08.792Z,32.40
2019-05-22T00:18:37.748Z,34.27
2019-05-22T00:21:07.265Z,34.27
2019-05-22T00:23:36.879Z,33.07
2019-05-22T00:26:05.824Z,32.07
2019-05-22T00:28:34.416Z,31.73
2019-05-22T00:31:03.075Z,34.43
2019-05-22T00:33:31.564Z,30.83
2019-05-22T00:36:02.223Z,32.30
2019-05-22T00:38:31.672Z,34.70
2019-05-22T00:41:04.771Z,33.63
2019-05-22T00:43:37.717Z,31.73
2019-05-22T00:46:07.985Z,30.70
2019-05-22T00:48:38.340Z,36.27
2019-05-22T00:51:46.399Z,33.97
2019-05-22T00:54:39.466Z,33.70
2019-05-22T00:57:25.749Z,33.03
2019-05-22T00:59:55.913Z,34.93
2019-05-22T01:02:26.671Z,35.70
2019-05-22T01:04:54.750Z,32.13
2019-05-22T01:07:30.045Z,33.20
2019-05-22T01:09:59.343Z,32.43
2019-05-22T01:12:32.089Z,30.20
2019-05-22T01:15:03.976Z,33.83
2019-05-22T01:17:34.037Z,28.20
2019-05-22T01:20:04.931Z,31.43
2019-05-22T01:22:36.651Z,30.07
2019-05-22T01:25:06.192Z,29.67
2019-05-22T01:27:35.806Z,27.83
2019-05-22T01:30:07.097Z,28.93
2019-05-22T01:32:42.783Z,27.87
2019-05-22T01:35:13.071Z,26.20
2019-05-22T01:37:42.589Z,27.80
2019-05-22T01:40:19.501Z,30.83
2019-05-22T01:42:50.437Z,28.03
2019-05-22T01:45:20.558Z,27.10
2019-05-22T01:47:53.932Z,26.70
2019-05-22T01:50:25.535Z,31.77
2019-05-22T01:52:55.200Z,27.07
2019-05-22T01:55:23.116Z,27.60
2019-05-22T01:57:53.088Z,30.93
2019-05-22T02:00:21.510Z,27.80
2019-05-22T02:02:51.561Z,28.53
2019-05-22T02:05:20.842Z,27.20
2019-05-22T02:07:48.765Z,31.30
2019-05-22T02:10:19.415Z,28.50
2019-05-22T02:12:51.083Z,29.97
2019-05-22T02:15:19.649Z,29.10
2019-05-22T02:17:48.576Z,27.03
2019-05-22T02:20:18.416Z,28.77
2019-05-22T02:22:48.038Z,26.97
2019-05-22T02:25:16.354Z,29.57
2019-05-22T02:27:44.966Z,28.23
2019-05-22T02:30:14.456Z,28.17
2019-05-22T02:32:43.019Z,26.33
2019-05-22T02:35:12.834Z,26.80
2019-05-22T02:37:42.270Z,27.97
2019-05-22T02:40:15.332Z,29.43
2019-05-22T02:42:44.262Z,27.17
2019-05-22T02:45:13.397Z,26.93
2019-05-22T02:47:41.381Z,26.93
2019-05-22T02:50:11.170Z,26.23
2019-05-22T02:52:39.258Z,29.50
2019-05-22T02:55:08.701Z,29.10
2019-05-22T02:57:36.808Z,26.70
2019-05-22T03:00:05.017Z,29.67
2019-05-22T03:02:36.061Z,28.20
2019-05-22T03:05:07.896Z,27.60
2019-05-22T03:07:36.734Z,28.53
2019-05-22T03:10:05.738Z,25.93
2019-05-22T03:12:36.450Z,27.37
2019-05-22T03:15:07.526Z,26.47
2019-05-22T03:17:36.654Z,26.97
2019-05-22T03:20:16.388Z,27.93
2019-05-22T03:23:02.875Z,25.30
2019-05-22T03:25:33.178Z,26.27
2019-05-22T03:28:02.203Z,26.17
2019-05-22T03:30:32.536Z,25.93
2019-05-22T03:33:01.821Z,25.93
2019-05-22T03:35:31.475Z,25.73
2019-05-22T03:38:01.322Z,24.77
2019-05-22T03:40:29.874Z,24.80
2019-05-22T03:42:59.491Z,27.33
2019-05-22T03:45:28.109Z,28.50
2019-05-22T03:47:57.797Z,26.27
2019-05-22T03:50:26.401Z,26.20
2019-05-22T03:52:56.718Z,24.93
2019-05-22T03:55:24.783Z,27.10
2019-05-22T03:57:52.847Z,24.67
2019-05-22T04:00:22.272Z,25.77
2019-05-22T04:02:51.754Z,25.87
2019-05-22T04:05:20.869Z,26.50
2019-05-22T04:07:49.852Z,25.40
2019-05-22T04:10:18.743Z,24.40
2019-05-22T04:12:47.228Z,25.23
2019-05-22T04:15:15.712Z,26.00
2019-05-22T04:17:44.039Z,22.50
2019-05-22T04:20:13.891Z,24.00
2019-05-22T04:22:42.269Z,24.63
2019-05-22T04:25:10.376Z,27.00
2019-05-22T04:27:38.317Z,24.67
2019-05-22T04:30:08.646Z,25.33
2019-05-22T04:32:39.803Z,22.97
2019-05-22T04:35:10.910Z,23.10
2019-05-22T04:37:41.819Z,24.77
2019-05-22T04:40:32.169Z,22.20
2019-05-22T04:43:00.701Z,24.20
2019-05-22T04:45:29.356Z,23.50
2019-05-22T04:48:00.682Z,22.87
2019-05-22T04:50:29.901Z,24.63
2019-05-22T04:52:58.792Z,22.97
2019-05-22T04:55:27.098Z,22.17
2019-05-22T04:57:55.283Z,31.20
2019-05-22T05:00:24.115Z,21.07
2019-05-22T05:02:53.141Z,21.93
2019-05-22T05:05:24.505Z,20.00
2019-05-22T05:07:56.346Z,21.57
2019-05-22T05:10:24.968Z,21.03
2019-05-22T05:12:53.772Z,21.40
2019-05-22T05:15:22.146Z,19.43
2019-05-22T05:17:50.268Z,20.90
2019-05-22T05:20:22.339Z,18.90
2019-05-22T05:22:48.997Z,18.73
2019-05-22T05:25:17.435Z,20.63
2019-05-22T05:27:46.255Z,19.10
2019-05-22T05:30:15.731Z,18.57
2019-05-22T05:32:43.979Z,20.23
2019-05-22T05:35:12.651Z,19.70
2019-05-22T05:37:41.259Z,17.60
2019-05-22T05:40:28.927Z,20.73
2019-05-22T05:42:57.282Z,19.83
2019-05-22T05:45:26.481Z,16.83
2019-05-22T05:47:55.934Z,17.53
2019-05-22T05:50:38.387Z,19.63
2019-05-22T05:52:54.984Z,16.77
2019-05-22T05:55:26.483Z,14.97
2019-05-22T05:58:15.023Z,16.80
2019-05-22T06:03:32.088Z,16.60
2019-05-22T06:06:03.150Z,14.27
2019-05-22T06:08:32.482Z,14.47
2019-05-22T06:11:27.330Z,15.60
2019-05-22T06:13:56.124Z,13.00
2019-05-22T06:16:46.298Z,14.23
2019-05-22T06:19:14.304Z,17.90
2019-05-22T06:21:44.381Z,13.80
2019-05-22T06:24:27.889Z,14.77
2019-05-22T06:27:02.291Z,14.50
2019-05-22T06:29:33.006Z,12.60
2019-05-22T06:32:19.207Z,12.73
2019-05-22T06:34:47.675Z,13.13
2019-05-22T06:37:26.928Z,12.47
2019-05-22T06:39:55.694Z,14.07
2019-05-22T06:42:28.466Z,12.03
2019-05-22T06:44:56.789Z,14.80
2019-05-22T06:47:26.604Z,17.40
2019-05-22T06:49:55.961Z,15.07
2019-05-22T06:52:24.586Z,13.97
2019-05-22T06:54:52.980Z,15.63
2019-05-22T06:57:27.251Z,15.50
2019-05-22T07:00:12.078Z,13.30
2019-05-22T07:02:27.139Z,13.87
2019-05-22T07:04:55.510Z,15.20
2019-05-22T07:07:26.878Z,12.83
2019-05-22T07:09:55.840Z,14.13
2019-05-22T07:12:24.955Z,13.17
2019-05-22T07:15:17.841Z,12.70
2019-05-22T07:17:46.979Z,12.47
2019-05-22T07:20:15.527Z,12.97
2019-05-22T07:22:43.774Z,13.93
2019-05-22T07:25:11.874Z,11.47
2019-05-22T07:27:41.263Z,11.90
2019-05-22T07:30:10.361Z,10.80
2019-05-22T07:32:38.629Z,12.07
2019-05-22T07:35:07.709Z,10.67
2019-05-22T07:37:38.437Z,11.40
2019-05-22T07:40:06.804Z,12.80
2019-05-22T07:42:35.500Z,12.63
2019-05-22T07:45:03.452Z,13.80
2019-05-22T07:47:31.873Z,13.17
2019-05-22T07:49:59.921Z,11.30
2019-05-22T07:52:28.012Z,12.97
2019-05-22T07:54:56.406Z,12.10
2019-05-22T07:57:25.028Z,10.80
2019-05-22T07:59:52.975Z,12.10
2019-05-22T08:02:22.883Z,11.80
2019-05-22T08:04:51.150Z,12.43
2019-05-22T08:07:21.851Z,12.17
2019-05-22T08:09:50.437Z,11.70
2019-05-22T08:12:19.045Z,9.30
2019-05-22T08:14:48.442Z,10.40
2019-05-22T08:17:17.314Z,9.70
2019-05-22T08:19:45.224Z,9.20
2019-05-22T08:22:13.485Z,10.80
2019-05-22T08:24:41.677Z,10.17
2019-05-22T08:27:10.527Z,10.70
2019-05-22T08:29:38.887Z,10.37
2019-05-22T08:32:07.656Z,11.80
2019-05-22T08:34:36.732Z,9.53
2019-05-22T08:37:06.063Z,9.77
2019-05-22T08:39:34.398Z,12.27
2019-05-22T08:42:04.004Z,11.33
2019-05-22T08:44:32.807Z,11.57
2019-05-22T08:47:00.995Z,11.07
2019-05-22T08:49:29.011Z,10.83
2019-05-22T08:51:57.002Z,12.57
2019-05-22T08:54:24.908Z,12.00
2019-05-22T08:56:53.783Z,10.10
2019-05-22T08:59:22.053Z,10.17
2019-05-22T09:01:50.324Z,10.07
2019-05-22T09:04:18.263Z,9.70
2019-05-22T09:06:46.204Z,10.47
2019-05-22T09:09:14.227Z,11.10
2019-05-22T09:11:42.236Z,8.23
2019-05-22T09:14:10.202Z,10.93
2019-05-22T09:16:38.131Z,10.80
2019-05-22T09:19:06.376Z,11.37
2019-05-22T09:21:34.389Z,10.10
2019-05-22T09:24:02.909Z,9.70
2019-05-22T09:26:31.665Z,10.17
2019-05-22T09:28:59.717Z,11.00
2019-05-22T09:31:27.895Z,11.40
2019-05-22T09:33:56.459Z,11.37
2019-05-22T09:36:24.444Z,9.77
2019-05-22T09:38:52.978Z,8.27
2019-05-22T09:41:21.199Z,9.40
2019-05-22T09:43:49.196Z,10.10
2019-05-22T09:46:17.856Z,11.13
2019-05-22T09:48:45.756Z,9.43
2019-05-22T09:51:13.691Z,9.43
2019-05-22T09:53:42.255Z,10.60
2019-05-22T09:56:10.322Z,10.37
2019-05-22T09:58:38.425Z,9.40
2019-05-22T10:01:10.940Z,8.17
2019-05-22T10:03:37.021Z,7.87
2019-05-22T10:06:05.305Z,8.70
2019-05-22T10:08:33.525Z,9.30
2019-05-22T10:11:03.125Z,8.53
2019-05-22T10:13:31.828Z,8.17
2019-05-22T10:16:00.135Z,8.60
2019-05-22T10:18:28.226Z,12.10
2019-05-22T10:20:56.550Z,10.23
2019-05-22T10:23:24.525Z,8.13
2019-05-22T10:25:52.714Z,10.20
2019-05-22T10:28:20.728Z,8.60
2019-05-22T10:30:48.999Z,8.90
2019-05-22T10:33:16.949Z,8.80
2019-05-22T10:35:45.293Z,8.37
2019-05-22T10:38:13.358Z,6.40
2019-05-22T10:40:41.647Z,7.73
2019-05-22T10:43:09.620Z,7.97
2019-05-22T10:45:37.781Z,6.90
2019-05-22T10:48:05.825Z,5.40
2019-05-22T10:50:33.820Z,7.60
2019-05-22T10:53:01.852Z,7.60
2019-05-22T10:55:30.057Z,6.20
2019-05-22T10:57:58.106Z,27.70
2019-05-22T11:00:27.520Z,8.60
2019-05-22T11:02:55.649Z,6.20
2019-05-22T11:05:23.579Z,6.00
2019-05-22T11:07:52.143Z,6.60
2019-05-22T11:10:21.879Z,6.80
2019-05-22T11:12:50.376Z,5.40
2019-05-22T11:15:18.218Z,5.70
2019-05-22T11:17:46.516Z,7.30
2019-05-22T11:20:15.403Z,7.27
2019-05-22T11:22:43.963Z,6.53
2019-05-22T11:25:13.718Z,6.77
2019-05-22T11:27:41.913Z,5.67
2019-05-22T11:30:11.131Z,5.33
2019-05-22T11:32:39.318Z,4.93
2019-05-22T11:35:07.673Z,6.10
2019-05-22T11:37:35.615Z,5.57
2019-05-22T11:40:03.978Z,4.40
2019-05-22T11:42:32.268Z,4.60
2019-05-22T11:45:00.285Z,4.60
2019-05-22T11:47:28.565Z,4.60
2019-05-22T11:49:56.572Z,5.17
2019-05-22T11:52:25.299Z,5.47
2019-05-22T11:54:53.403Z,5.13
2019-05-22T11:57:21.685Z,5.53
2019-05-22T11:59:49.641Z,5.00
2019-05-22T12:02:18.313Z,4.50
2019-05-22T12:04:48.746Z,4.40
2019-05-22T12:07:16.170Z,3.60
2019-05-22T12:09:45.417Z,3.80
2019-05-22T12:12:13.998Z,4.33
2019-05-22T12:14:41.985Z,4.63
2019-05-22T12:17:11.271Z,4.20
2019-05-22T12:19:39.397Z,3.03
2019-05-22T12:22:08.128Z,3.67
2019-05-22T12:24:37.568Z,4.00
2019-05-22T12:27:07.558Z,3.77
2019-05-22T12:29:36.366Z,3.83
2019-05-22T12:32:04.892Z,3.57
2019-05-22T12:34:32.990Z,3.60
2019-05-22T12:37:01.317Z,4.17
2019-05-22T12:39:29.759Z,4.10
2019-05-22T12:41:59.068Z,4.80
2019-05-22T12:44:27.227Z,4.30
2019-05-22T12:46:55.141Z,12.97
2019-05-22T12:49:24.005Z,14.70
2019-05-22T12:51:51.965Z,5.10
2019-05-22T12:54:20.109Z,3.23
2019-05-22T12:56:48.507Z,4.10
2019-05-22T12:59:16.834Z,3.67
2019-05-22T13:01:45.820Z,3.10
2019-05-22T13:04:14.481Z,3.70
2019-05-22T13:06:42.671Z,3.50
2019-05-22T13:09:11.322Z,4.00
2019-05-22T13:11:39.721Z,5.83
2019-05-22T13:14:07.827Z,14.90
2019-05-22T13:16:35.824Z,14.10
2019-05-22T13:19:03.801Z,4.77
2019-05-22T13:21:33.785Z,3.73
2019-05-22T13:24:04.384Z,3.23
2019-05-22T13:26:34.137Z,3.70
2019-05-22T13:29:03.753Z,3.90
2019-05-22T13:31:32.338Z,4.10
2019-05-22T13:34:00.361Z,5.73
2019-05-22T13:36:28.660Z,4.10
2019-05-22T13:38:56.619Z,3.93
2019-05-22T13:41:24.502Z,4.47
2019-05-22T13:43:52.493Z,4.17
2019-05-22T13:46:20.487Z,4.70
2019-05-22T13:48:48.860Z,5.77
2019-05-22T13:51:16.860Z,6.10
2019-05-22T13:53:45.052Z,9.00
2019-05-22T13:56:13.137Z,6.57
2019-05-22T13:58:42.067Z,8.03
2019-05-22T14:01:10.368Z,7.70
2019-05-22T14:03:38.370Z,7.13
2019-05-22T14:06:06.901Z,7.03
2019-05-22T14:08:34.906Z,6.60
2019-05-22T14:11:03.035Z,5.90
2019-05-22T14:13:31.559Z,5.57
2019-05-22T14:15:59.565Z,6.20
2019-05-22T14:18:27.591Z,5.80
2019-05-22T14:20:55.514Z,4.33
2019-05-22T14:23:23.710Z,5.00
2019-05-22T14:25:52.334Z,5.30
2019-05-22T14:28:21.360Z,5.03
2019-05-22T14:30:49.795Z,4.80
2019-05-22T14:33:17.880Z,4.40
2019-05-22T14:35:48.662Z,5.67
2019-05-22T14:38:16.475Z,3.37
2019-05-22T14:40:44.452Z,3.47
2019-05-22T14:43:12.750Z,3.63
2019-05-22T14:45:40.792Z,3.50
2019-05-22T14:48:09.011Z,3.20
2019-05-22T14:50:37.163Z,2.70
2019-05-22T14:53:05.164Z,2.90
2019-05-22T14:55:34.745Z,3.00
2019-05-22T14:58:04.869Z,2.47
2019-05-22T15:00:33.477Z,2.20
2019-05-22T15:03:01.628Z,3.43
2019-05-22T15:05:29.563Z,2.77
2019-05-22T15:07:57.474Z,2.50
2019-05-22T15:10:26.550Z,2.60
2019-05-22T15:12:54.560Z,2.90
2019-05-22T15:15:23.245Z,2.97
2019-05-22T15:17:51.483Z,3.17
2019-05-22T15:20:23.315Z,2.60
2019-05-22T15:22:51.279Z,5.10
2019-05-22T15:25:22.210Z,2.90
2019-05-22T15:27:50.133Z,2.67
2019-05-22T15:30:18.535Z,3.20
2019-05-22T15:32:46.501Z,2.80
2019-05-22T15:35:14.888Z,4.20
2019-05-22T15:37:43.411Z,3.20
2019-05-22T15:40:11.776Z,3.00
2019-05-22T15:42:40.664Z,2.93
2019-05-22T15:45:09.565Z,2.83
2019-05-22T15:47:53.146Z,3.67
2019-05-22T15:50:10.485Z,3.50
2019-05-22T15:52:39.784Z,3.50
2019-05-22T15:55:09.315Z,4.20
2019-05-22T15:57:38.729Z,3.47
2019-05-22T16:00:08.496Z,4.30
2019-05-22T16:02:37.669Z,4.00
2019-05-22T16:05:06.774Z,3.77
2019-05-22T16:07:34.969Z,3.73
2019-05-22T16:10:03.900Z,3.47
2019-05-22T16:12:32.118Z,4.00
2019-05-22T16:15:01.174Z,3.67
2019-05-22T16:17:31.076Z,4.60
2019-05-22T16:19:59.490Z,3.20
2019-05-22T16:22:27.596Z,3.23
2019-05-22T16:24:55.631Z,3.33
2019-05-22T16:27:23.772Z,3.67
2019-05-22T16:29:52.123Z,4.00
2019-05-22T16:32:21.895Z,3.80
2019-05-22T16:34:50.466Z,3.40
2019-05-22T16:37:18.591Z,3.90
2019-05-22T16:39:50.117Z,3.97
2019-05-22T16:42:16.512Z,3.57
2019-05-22T16:44:44.566Z,4.10
2019-05-22T16:47:12.888Z,5.57
2019-05-22T16:49:40.945Z,4.20
2019-05-22T16:52:11.376Z,3.87
2019-05-22T16:54:39.564Z,3.67
2019-05-22T16:57:08.656Z,3.93
2019-05-22T16:59:38.217Z,3.50
2019-05-22T17:02:08.312Z,4.30
2019-05-22T17:04:36.590Z,4.10
2019-05-22T17:07:05.431Z,3.50
2019-05-22T17:09:33.374Z,3.77
2019-05-22T17:12:04.933Z,8.13
2019-05-22T17:14:33.865Z,4.33
2019-05-22T17:17:02.184Z,3.90
2019-05-22T17:19:30.489Z,3.87
2019-05-22T17:21:58.486Z,5.03
2019-05-22T17:24:27.151Z,5.37
2019-05-22T17:26:56.006Z,4.73
2019-05-22T17:29:24.457Z,4.97
2019-05-22T17:31:53.218Z,5.10
2019-05-22T17:34:37.299Z,4.83
2019-05-22T17:37:09.593Z,4.27
2019-05-22T17:39:39.182Z,5.67
2019-05-22T17:42:08.969Z,5.67
2019-05-22T17:44:38.121Z,4.73
2019-05-22T17:47:08.315Z,5.43
2019-05-22T17:49:36.461Z,5.23
2019-05-22T17:52:04.426Z,5.33
2019-05-22T17:54:33.415Z,6.13
2019-05-22T17:57:02.738Z,5.13
2019-05-22T17:59:30.980Z,6.30
2019-05-22T18:01:59.145Z,5.87
2019-05-22T18:04:27.429Z,5.97
2019-05-22T18:06:55.312Z,6.90
2019-05-22T18:09:23.462Z,6.80
2019-05-22T18:11:51.581Z,6.50
2019-05-22T18:14:19.536Z,5.83
2019-05-22T18:16:47.497Z,6.23
2019-05-22T18:19:15.885Z,6.03
2019-05-22T18:21:44.337Z,6.50
2019-05-22T18:24:13.128Z,5.90
2019-05-22T18:26:41.210Z,6.10
2019-05-22T18:29:09.207Z,6.67
2019-05-22T18:31:37.533Z,7.50
2019-05-22T18:34:05.456Z,6.03
2019-05-22T18:36:33.395Z,5.63
2019-05-22T18:39:01.391Z,8.00
2019-05-22T18:41:29.468Z,6.77
2019-05-22T18:43:58.309Z,6.80
2019-05-22T18:46:26.204Z,6.33
2019-05-22T18:48:54.154Z,7.60
2019-05-22T18:51:22.306Z,6.30
2019-05-22T18:53:50.211Z,7.17
2019-05-22T18:56:18.203Z,7.50
2019-05-22T18:58:46.191Z,7.83
2019-05-22T19:01:16.319Z,8.17
2019-05-22T19:03:43.976Z,7.53
2019-05-22T19:06:12.152Z,7.80
2019-05-22T19:08:40.418Z,8.43
2019-05-22T19:11:08.418Z,8.60
2019-05-22T19:13:36.553Z,9.00
2019-05-22T19:16:04.525Z,8.57
2019-05-22T19:18:32.474Z,8.40
2019-05-22T19:21:00.652Z,8.93
2019-05-22T19:23:28.768Z,8.77
2019-05-22T19:25:56.671Z,8.80
2019-05-22T19:28:40.497Z,9.47
2019-05-22T19:30:54.667Z,7.80
2019-05-22T19:33:22.815Z,9.50
2019-05-22T19:35:50.732Z,8.57
2019-05-22T19:38:18.670Z,9.43
2019-05-22T19:40:47.231Z,8.63
2019-05-22T19:43:16.120Z,9.03
2019-05-22T19:45:44.412Z,9.63
2019-05-22T19:48:12.889Z,8.63
2019-05-22T19:50:41.218Z,8.47
2019-05-22T19:53:18.859Z,10.63
2019-05-22T19:55:40.980Z,8.67
2019-05-22T19:58:10.718Z,8.27
2019-05-22T20:00:39.486Z,8.70
2019-05-22T20:03:07.901Z,9.93
2019-05-22T20:05:36.213Z,10.23
2019-05-22T20:08:05.045Z,9.40
2019-05-22T20:10:33.441Z,9.33
2019-05-22T20:13:02.593Z,9.53
2019-05-22T20:15:30.642Z,10.50
2019-05-22T20:17:58.654Z,8.53
2019-05-22T20:20:27.201Z,8.80
2019-05-22T20:22:55.188Z,11.30
2019-05-22T20:25:23.495Z,9.73
2019-05-22T20:27:51.452Z,9.07
2019-05-22T20:30:20.674Z,9.17
2019-05-22T20:32:49.979Z,9.90
2019-05-22T20:35:17.972Z,9.87
2019-05-22T20:37:46.886Z,9.40
2019-05-22T20:40:15.907Z,8.50
2019-05-22T20:42:44.101Z,8.63
2019-05-22T20:45:13.056Z,10.60
2019-05-22T20:47:41.951Z,10.20
2019-05-22T20:50:11.207Z,10.37
2019-05-22T20:52:39.961Z,9.93
2019-05-22T20:55:09.381Z,10.57
2019-05-22T20:57:37.956Z,9.87
2019-05-22T21:00:08.068Z,10.03
2019-05-22T21:02:37.230Z,11.47
2019-05-22T21:05:07.041Z,10.90
2019-05-22T21:07:36.886Z,11.23
2019-05-22T21:10:06.017Z,10.17
2019-05-22T21:12:36.092Z,10.70
2019-05-22T21:15:04.645Z,11.43
2019-05-22T21:17:33.204Z,10.57
2019-05-22T21:20:03.258Z,11.90
2019-05-22T21:22:31.224Z,14.00
2019-05-22T21:24:59.703Z,11.60
2019-05-22T21:27:27.625Z,11.70
2019-05-22T21:29:56.164Z,10.70
2019-05-22T21:32:24.789Z,12.03
2019-05-22T21:34:52.773Z,10.37
2019-05-22T21:37:20.736Z,10.97
2019-05-22T21:39:50.542Z,12.83
2019-05-22T21:42:18.721Z,12.67
2019-05-22T21:44:46.703Z,12.33
2019-05-22T21:47:14.691Z,11.10
2019-05-22T21:49:44.127Z,10.63
2019-05-22T21:52:12.922Z,12.60
2019-05-22T21:54:41.093Z,11.63
2019-05-22T21:57:10.375Z,12.00
2019-05-22T21:59:38.592Z,10.80
2019-05-22T22:02:20.409Z,10.60
2019-05-22T22:04:48.916Z,12.17
2019-05-22T22:07:18.068Z,11.80
2019-05-22T22:09:46.146Z,12.70
2019-05-22T22:12:15.379Z,13.13
2019-05-22T22:14:45.179Z,13.23
2019-05-22T22:17:14.547Z,13.73
2019-05-22T22:19:42.567Z,11.20
2019-05-22T22:22:11.989Z,12.00
2019-05-22T22:24:40.001Z,11.00
2019-05-22T22:27:07.891Z,11.33
2019-05-22T22:29:35.839Z,14.50
2019-05-22T22:32:05.352Z,10.87
2019-05-22T22:34:43.008Z,12.30
2019-05-22T22:37:11.805Z,11.57
2019-05-22T22:39:41.724Z,14.50
2019-05-22T22:42:11.561Z,13.47
2019-05-22T22:44:40.775Z,11.93
2019-05-22T22:47:14.894Z,14.20
2019-05-22T22:49:44.008Z,10.60
2019-05-22T22:52:13.905Z,13.60
2019-05-22T22:54:41.957Z,13.33
2019-05-22T22:57:11.621Z,11.80
2019-05-22T22:59:39.634Z,11.27
2019-05-22T23:02:09.364Z,11.53
2019-05-22T23:04:37.229Z,11.83
2019-05-22T23:07:07.516Z,13.43
2019-05-22T23:09:36.883Z,12.37
2019-05-22T23:12:06.417Z,11.93
2019-05-22T23:14:35.555Z,11.37
2019-05-22T23:17:05.202Z,12.50
2019-05-22T23:19:33.498Z,10.97
2019-05-22T23:22:01.360Z,11.20
2019-05-22T23:24:29.622Z,13.50
2019-05-22T23:26:59.512Z,12.73
2019-05-22T23:29:28.136Z,10.07
2019-05-22T23:31:56.144Z,11.57
2019-05-22T23:34:24.090Z,11.53
2019-05-22T23:36:52.281Z,11.43
2019-05-22T23:39:20.216Z,12.87
2019-05-22T23:41:48.592Z,11.83
2019-05-22T23:44:19.316Z,11.20
2019-05-22T23:46:47.533Z,11.43
2019-05-22T23:49:15.501Z,18.30
2019-05-22T23:51:44.583Z,15.27
2019-05-22T23:54:13.107Z,12.67
2019-05-22T23:56:41.597Z,10.70
2019-05-22T23:59:10.420Z,11.57
